createdAt,value
2022-09-28T00:01:27.153Z,99207.09
2022-09-28T00:03:53.824Z,99199.94
2022-09-28T00:06:20.365Z,99198.31
2022-09-28T00:08:45.907Z,99197.97
2022-09-28T00:11:12.960Z,99203.16
2022-09-28T00:13:39.484Z,99198.78
2022-09-28T00:16:06.335Z,99197.19
2022-09-28T00:18:31.954Z,99196.03
2022-09-28T00:20:59.179Z,99191.31
2022-09-28T00:23:24.721Z,99192.44
2022-09-28T00:25:50.280Z,99182.19
2022-09-28T00:28:15.828Z,99188.88
2022-09-28T00:30:41.412Z,99187.72
2022-09-28T00:33:06.951Z,99188.06
2022-09-28T00:35:32.502Z,99177.00
2022-09-28T00:37:58.039Z,99183.34
2022-09-28T00:40:23.627Z,99176.31
2022-09-28T00:42:49.213Z,99176.66
2022-09-28T00:45:14.929Z,99169.50
2022-09-28T00:47:42.817Z,99173.09
2022-09-28T00:53:00.872Z,99166.75
2022-09-28T00:55:30.358Z,99164.31
2022-09-28T00:57:56.275Z,99159.91
2022-09-28T01:00:21.946Z,99153.22
2022-09-28T01:02:47.504Z,99165.44
2022-09-28T01:05:13.254Z,99163.19
2022-09-28T01:07:38.795Z,99158.78
2022-09-28T01:10:05.074Z,99156.00
2022-09-28T01:12:30.613Z,99159.59
2022-09-28T01:14:56.165Z,99161.53
2022-09-28T01:17:24.847Z,99168.72
2022-09-28T01:20:10.277Z,99165.94
2022-09-28T01:22:43.362Z,99165.94
2022-09-28T01:25:10.526Z,99167.91
2022-09-28T01:27:42.176Z,99170.66
2022-09-28T01:30:08.679Z,99169.84
2022-09-28T01:32:35.868Z,99167.91
2022-09-28T01:35:21.364Z,99162.38
2022-09-28T01:37:51.432Z,99161.53
2022-09-28T01:40:17.088Z,99158.78
2022-09-28T01:42:43.386Z,99155.19
2022-09-28T01:45:11.054Z,99159.91
2022-09-28T01:47:37.100Z,99165.44
2022-09-28T01:50:10.820Z,99165.44
2022-09-28T01:52:44.924Z,99160.41
2022-09-28T01:55:11.683Z,99156.84
2022-09-28T01:57:40.914Z,99162.38
2022-09-28T02:00:07.515Z,99149.66
2022-09-28T02:02:35.206Z,99149.66
2022-09-28T02:05:04.923Z,99155.19
2022-09-28T02:07:33.275Z,99149.66
2022-09-28T02:10:00.081Z,99152.78
2022-09-28T02:12:29.127Z,99153.22
2022-09-28T02:14:55.192Z,99142.16
2022-09-28T02:17:20.739Z,99142.16
2022-09-28T02:19:46.290Z,99149.66
2022-09-28T02:22:22.317Z,99140.56
2022-09-28T02:24:55.867Z,99147.25
2022-09-28T02:27:25.089Z,99154.88
2022-09-28T02:29:50.637Z,99148.03
2022-09-28T02:32:16.276Z,99148.03
2022-09-28T02:34:41.815Z,99143.31
2022-09-28T02:37:07.359Z,99150.81
2022-09-28T02:39:32.893Z,99150.81
2022-09-28T02:42:18.479Z,99152.78
2022-09-28T02:45:04.150Z,99153.59
2022-09-28T02:47:35.148Z,99151.16
2022-09-28T02:50:20.590Z,99148.84
2022-09-28T02:52:58.496Z,99152.78
2022-09-28T02:55:35.614Z,99157.97
2022-09-28T02:58:21.043Z,99146.44
2022-09-28T03:00:51.599Z,99150.81
2022-09-28T03:03:18.145Z,99156.34
2022-09-28T03:05:46.556Z,99163.50
2022-09-28T03:08:18.871Z,99148.84
2022-09-28T03:10:46.043Z,99164.31
2022-09-28T03:13:11.593Z,99161.53
2022-09-28T03:15:37.197Z,99157.97
2022-09-28T03:18:02.744Z,99161.88
2022-09-28T03:20:28.795Z,99167.41
2022-09-28T03:23:19.644Z,99171.78
2022-09-28T03:25:39.952Z,99167.06
2022-09-28T03:28:05.492Z,99165.44
2022-09-28T03:30:31.060Z,99168.56
2022-09-28T03:32:58.507Z,99164.97
2022-09-28T03:35:24.052Z,99168.22
2022-09-28T03:37:49.596Z,99166.59
2022-09-28T03:40:15.226Z,99172.13
2022-09-28T03:42:43.085Z,99162.22
2022-09-28T03:45:08.764Z,99164.97
2022-09-28T03:47:34.309Z,99166.59
2022-09-28T03:49:59.849Z,99164.97
2022-09-28T03:52:25.404Z,99161.41
2022-09-28T03:54:50.954Z,99163.03
2022-09-28T03:57:16.507Z,99163.84
2022-09-28T03:59:42.043Z,99166.94
2022-09-28T04:02:07.699Z,99157.84
2022-09-28T04:04:33.299Z,99155.88
2022-09-28T04:06:58.848Z,99161.41
2022-09-28T04:09:24.384Z,99161.06
2022-09-28T04:12:03.459Z,99161.06
2022-09-28T04:14:29.623Z,99157.50
2022-09-28T04:16:55.175Z,99158.31
2022-09-28T04:19:21.344Z,99163.03
2022-09-28T04:21:47.259Z,99151.16
2022-09-28T04:24:13.392Z,99163.84
2022-09-28T04:26:38.986Z,99162.22
2022-09-28T04:29:20.223Z,99173.28
2022-09-28T04:31:46.674Z,99168.56
2022-09-28T04:34:13.860Z,99162.22
2022-09-28T04:36:39.844Z,99164.66
2022-09-28T04:39:05.379Z,99168.56
2022-09-28T04:41:30.926Z,99165.78
2022-09-28T04:43:56.472Z,99165.44
2022-09-28T04:46:22.031Z,99161.88
2022-09-28T04:48:47.603Z,99163.84
2022-09-28T04:51:13.150Z,99171.31
2022-09-28T04:53:38.689Z,99161.06
2022-09-28T04:56:06.119Z,99163.84
2022-09-28T04:58:31.657Z,99165.31
2022-09-28T05:00:58.436Z,99164.50
2022-09-28T05:03:23.982Z,99161.56
2022-09-28T05:05:49.541Z,99163.88
2022-09-28T05:08:15.292Z,99163.06
2022-09-28T05:10:40.838Z,99159.97
2022-09-28T05:13:06.725Z,99156.88
2022-09-28T05:15:33.838Z,99159.66
2022-09-28T05:17:59.813Z,99164.03
2022-09-28T05:20:25.369Z,99166.44
2022-09-28T05:22:50.920Z,99165.66
2022-09-28T05:25:16.483Z,99177.19
2022-09-28T05:27:42.017Z,99168.06
2022-09-28T05:30:07.879Z,99172.78
2022-09-28T05:32:33.428Z,99183.53
2022-09-28T05:35:00.350Z,99178.81
2022-09-28T05:37:25.887Z,99178.31
2022-09-28T05:39:51.432Z,99180.28
2022-09-28T05:42:16.968Z,99176.56
2022-09-28T05:44:42.507Z,99179.66
2022-09-28T05:47:08.066Z,99177.25
2022-09-28T05:49:33.603Z,99179.16
2022-09-28T05:51:59.161Z,99180.81
2022-09-28T05:54:24.695Z,99187.47
2022-09-28T05:56:50.245Z,99189.41
2022-09-28T05:59:15.869Z,99185.53
2022-09-28T06:01:41.480Z,99187.16
2022-09-28T06:04:08.116Z,99195.91
2022-09-28T06:06:34.050Z,99182.56
2022-09-28T06:08:59.587Z,99183.69
2022-09-28T06:11:26.773Z,99190.06
2022-09-28T06:13:53.211Z,99192.84
2022-09-28T06:16:18.817Z,99196.41
2022-09-28T06:18:44.399Z,99192.84
2022-09-28T06:21:11.429Z,99197.53
2022-09-28T06:23:37.367Z,99198.38
2022-09-28T06:26:02.923Z,99199.16
2022-09-28T06:28:28.466Z,99203.56
2022-09-28T06:30:54.144Z,99201.59
2022-09-28T06:33:19.814Z,99205.97
2022-09-28T06:35:45.370Z,99211.50
2022-09-28T06:38:10.912Z,99217.84
2022-09-28T06:40:36.677Z,99226.16
2022-09-28T06:43:06.143Z,99227.28
2022-09-28T06:45:31.691Z,99231.69
2022-09-28T06:47:58.099Z,99235.59
2022-09-28T06:50:24.535Z,99243.09
2022-09-28T06:52:50.970Z,99235.75
2022-09-28T06:55:16.550Z,99243.56
2022-09-28T06:57:42.091Z,99238.34
2022-09-28T07:00:07.906Z,99235.13
2022-09-28T07:02:33.488Z,99241.94
2022-09-28T07:04:59.107Z,99247.00
2022-09-28T07:07:24.758Z,99245.03
2022-09-28T07:09:55.360Z,99251.38
2022-09-28T07:12:22.358Z,99253.34
2022-09-28T07:14:49.637Z,99261.28
2022-09-28T07:17:15.619Z,99251.38
2022-09-28T07:19:41.241Z,99253.81
2022-09-28T07:22:06.799Z,99259.34
2022-09-28T07:24:32.334Z,99252.19
2022-09-28T07:26:57.894Z,99254.63
2022-09-28T07:29:23.432Z,99259.03
2022-09-28T07:31:48.986Z,99264.09
2022-09-28T07:34:14.613Z,99261.63
2022-09-28T07:36:40.252Z,99259.53
2022-09-28T07:39:05.791Z,99270.75
2022-09-28T07:41:31.729Z,99265.69
2022-09-28T07:43:59.235Z,99271.22
2022-09-28T07:46:24.825Z,99277.56
2022-09-28T07:48:50.894Z,99279.19
2022-09-28T07:51:18.960Z,99280.34
2022-09-28T07:53:44.991Z,99277.56
2022-09-28T07:56:11.142Z,99275.63
2022-09-28T07:58:37.321Z,99281.16
2022-09-28T08:01:04.131Z,99289.44
2022-09-28T08:03:29.711Z,99299.69
2022-09-28T08:05:56.860Z,99296.94
2022-09-28T08:08:22.429Z,99300.50
2022-09-28T08:10:48.030Z,99305.22
2022-09-28T08:13:15.512Z,99302.47
2022-09-28T08:15:41.683Z,99308.81
2022-09-28T08:18:07.223Z,99312.03
2022-09-28T08:20:52.812Z,99307.00
2022-09-28T08:23:19.135Z,99307.19
2022-09-28T08:25:48.141Z,99310.75
2022-09-28T08:28:15.239Z,99316.59
2022-09-28T08:30:40.961Z,99316.28
2022-09-28T08:33:06.959Z,99313.56
2022-09-28T08:35:32.520Z,99323.63
2022-09-28T08:37:58.420Z,99324.91
2022-09-28T08:40:24.479Z,99329.16
2022-09-28T08:42:52.560Z,99333.03
2022-09-28T08:45:21.907Z,99330.59
2022-09-28T08:48:10.747Z,99335.69
2022-09-28T08:50:38.829Z,99336.00
2022-09-28T08:53:22.434Z,99330.00
2022-09-28T08:55:48.497Z,99333.84
2022-09-28T08:58:18.645Z,99343.63
2022-09-28T09:00:46.452Z,99339.25
2022-09-28T09:03:12.886Z,99341.50
2022-09-28T09:05:48.757Z,99345.22
2022-09-28T09:08:20.551Z,99341.22
2022-09-28T09:10:49.051Z,99350.28
2022-09-28T09:13:34.479Z,99351.13
2022-09-28T09:16:20.108Z,99347.03
2022-09-28T09:18:55.151Z,99346.41
2022-09-28T09:21:26.843Z,99346.41
2022-09-28T09:23:54.398Z,99357.78
2022-09-28T09:26:24.681Z,99365.91
2022-09-28T09:29:11.411Z,99363.78
2022-09-28T09:31:42.060Z,99362.34
2022-09-28T09:37:08.566Z,99353.72
2022-09-28T09:39:37.774Z,99360.06
2022-09-28T09:44:50.050Z,99358.44
2022-09-28T09:47:17.134Z,99365.59
2022-09-28T09:50:05.531Z,99371.13
2022-09-28T09:52:56.336Z,99372.59
2022-09-28T09:55:29.638Z,99363.63
2022-09-28T09:57:59.391Z,99362.00
2022-09-28T10:00:24.942Z,99369.97
2022-09-28T10:02:50.518Z,99375.50
2022-09-28T10:05:17.969Z,99364.94
2022-09-28T10:08:03.723Z,99370.47
2022-09-28T10:10:30.003Z,99372.72
2022-09-28T10:12:55.543Z,99366.72
2022-09-28T10:15:23.432Z,99371.63
2022-09-28T10:17:48.981Z,99365.28
2022-09-28T10:20:15.327Z,99364.44
2022-09-28T10:22:40.896Z,99368.50
2022-09-28T10:25:08.124Z,99357.91
2022-09-28T10:27:34.426Z,99363.78
2022-09-28T10:30:01.343Z,99369.81
2022-09-28T10:32:35.419Z,99364.28
2022-09-28T10:35:21.314Z,99370.63
2022-09-28T10:37:53.371Z,99369.47
2022-09-28T10:40:29.312Z,99362.47
2022-09-28T10:43:03.044Z,99371.94
2022-09-28T10:45:30.784Z,99373.56
2022-09-28T10:47:56.320Z,99367.69
2022-09-28T10:50:22.912Z,99373.41
2022-09-28T10:52:48.467Z,99376.63
2022-09-28T10:55:22.585Z,99378.44
2022-09-28T10:57:48.134Z,99379.09
2022-09-28T11:00:28.395Z,99374.38
2022-09-28T11:02:53.995Z,99368.03
2022-09-28T11:05:20.462Z,99374.38
2022-09-28T11:07:46.308Z,99374.03
2022-09-28T11:10:21.564Z,99370.44
2022-09-28T11:12:47.265Z,99374.03
2022-09-28T11:15:16.502Z,99364.41
2022-09-28T11:17:43.018Z,99363.94
2022-09-28T11:22:59.750Z,99371.41
2022-09-28T11:25:26.210Z,99372.56
2022-09-28T11:30:28.949Z,99371.06
2022-09-28T11:32:56.488Z,99362.31
2022-09-28T11:35:24.542Z,99363.94
2022-09-28T11:37:54.099Z,99362.78
2022-09-28T11:40:26.911Z,99367.50
2022-09-28T11:42:56.782Z,99366.84
2022-09-28T11:45:42.353Z,99363.59
2022-09-28T11:48:08.611Z,99373.53
2022-09-28T11:50:54.045Z,99375.44
2022-09-28T11:53:21.516Z,99363.88
2022-09-28T11:55:54.052Z,99368.28
2022-09-28T11:58:36.080Z,99374.16
2022-09-28T12:01:04.367Z,99372.19
2022-09-28T12:03:39.743Z,99365.22
2022-09-28T12:06:06.281Z,99369.97
2022-09-28T12:08:33.915Z,99373.22
2022-09-28T12:11:01.542Z,99368.50
2022-09-28T12:13:27.790Z,99367.22
2022-09-28T12:19:05.463Z,99374.16
2022-09-28T12:21:35.923Z,99359.69
2022-09-28T12:24:05.409Z,99365.88
2022-09-28T12:26:37.942Z,99367.13
2022-09-28T12:29:06.261Z,99363.56
2022-09-28T12:31:33.952Z,99363.25
2022-09-28T12:33:59.876Z,99364.88
2022-09-28T12:36:44.567Z,99365.34
2022-09-28T12:39:46.662Z,99362.09
2022-09-28T12:42:35.414Z,99366.84
2022-09-28T12:45:21.175Z,99360.50
2022-09-28T12:47:56.828Z,99361.31
2022-09-28T12:50:47.498Z,99363.56
2022-09-28T12:53:31.653Z,99358.53
2022-09-28T12:56:05.447Z,99362.44
2022-09-28T12:58:35.901Z,99361.31
2022-09-28T13:01:21.230Z,99366.66
2022-09-28T13:03:51.440Z,99368.28
2022-09-28T13:06:25.024Z,99363.91
2022-09-28T13:09:10.639Z,99371.41
2022-09-28T13:11:48.353Z,99358.72
2022-09-28T13:14:24.296Z,99366.16
2022-09-28T13:17:08.799Z,99360.50
2022-09-28T13:19:44.508Z,99354.63
2022-09-28T13:22:28.891Z,99356.22
2022-09-28T13:24:54.787Z,99355.75
2022-09-28T13:27:27.902Z,99347.78
2022-09-28T13:29:55.683Z,99347.47
2022-09-28T13:32:25.152Z,99350.22
2022-09-28T13:34:50.740Z,99342.75
2022-09-28T13:39:52.142Z,99353.16
2022-09-28T13:42:37.964Z,99344.84
2022-09-28T13:45:23.464Z,99349.56
2022-09-28T13:48:09.856Z,99345.16
2022-09-28T13:50:55.385Z,99353.81
2022-09-28T13:56:02.612Z,99356.72
2022-09-28T13:58:30.593Z,99355.41
2022-09-28T14:00:59.153Z,99359.34
2022-09-28T14:03:26.267Z,99353.47
2022-09-28T14:06:10.069Z,99362.09
2022-09-28T14:08:37.548Z,99363.25
2022-09-28T14:11:24.099Z,99369.25
2022-09-28T14:14:12.850Z,99370.41
2022-09-28T14:16:38.719Z,99372.38
2022-09-28T14:19:08.045Z,99364.88
2022-09-28T14:21:53.471Z,99370.88
2022-09-28T14:24:38.946Z,99367.31
2022-09-28T14:27:11.365Z,99368.44
2022-09-28T14:29:37.593Z,99374.31
2022-09-28T14:32:04.239Z,99373.66
2022-09-28T14:34:32.155Z,99380.31
2022-09-28T14:37:17.595Z,99374.78
2022-09-28T14:40:03.692Z,99377.56
2022-09-28T14:42:29.249Z,99374.47
2022-09-28T14:47:43.910Z,99381.13
2022-09-28T14:50:20.454Z,99373.66
2022-09-28T14:52:46.257Z,99377.09
2022-09-28T14:55:13.619Z,99377.91
2022-09-28T14:57:40.140Z,99383.09
2022-09-28T15:00:07.876Z,99383.91
2022-09-28T15:02:34.163Z,99390.25
2022-09-28T15:05:06.660Z,99383.91
2022-09-28T15:07:52.428Z,99388.31
2022-09-28T15:10:27.312Z,99393.97
2022-09-28T15:12:53.364Z,99401.63
2022-09-28T15:15:24.097Z,99410.44
2022-09-28T15:17:51.091Z,99412.38
2022-09-28T15:20:24.783Z,99414.31
2022-09-28T15:22:51.035Z,99426.69
2022-09-28T15:25:19.144Z,99431.44
2022-09-28T15:27:46.571Z,99425.91
2022-09-28T15:30:28.104Z,99423.59
2022-09-28T15:32:55.963Z,99428.81
2022-09-28T15:35:25.538Z,99465.91
2022-09-28T15:37:51.403Z,99463.50
2022-09-28T15:40:17.967Z,99464.28
2022-09-28T15:42:44.483Z,99466.25
2022-09-28T15:47:47.731Z,99468.06
2022-09-28T15:50:28.330Z,99468.06
2022-09-28T15:52:55.659Z,99473.59
2022-09-28T15:55:41.225Z,99465.28
2022-09-28T15:58:09.525Z,99469.19
2022-09-28T16:00:35.096Z,99474.72
2022-09-28T16:03:18.348Z,99474.22
2022-09-28T16:05:45.981Z,99483.34
2022-09-28T16:08:20.467Z,99480.44
2022-09-28T16:10:54.643Z,99477.69
2022-09-28T16:13:20.273Z,99480.75
2022-09-28T16:15:45.876Z,99486.78
2022-09-28T16:20:49.123Z,99487.09
2022-09-28T16:23:18.348Z,99479.13
2022-09-28T16:25:48.279Z,99493.78
2022-09-28T16:28:34.744Z,99490.53
2022-09-28T16:31:01.683Z,99496.53
2022-09-28T16:33:28.585Z,99498.50
2022-09-28T16:35:54.139Z,99489.38
2022-09-28T16:38:19.819Z,99494.94
2022-09-28T16:40:47.123Z,99493.31
2022-09-28T16:43:16.551Z,99494.59
2022-09-28T16:45:42.115Z,99499.66
2022-09-28T16:48:08.470Z,99500.81
2022-09-28T16:50:34.007Z,99504.38
2022-09-28T16:53:20.955Z,99511.88
2022-09-28T16:55:47.183Z,99506.00
2022-09-28T16:58:12.739Z,99503.56
2022-09-28T17:00:38.274Z,99502.72
2022-09-28T17:03:10.516Z,99501.91
2022-09-28T17:05:39.159Z,99512.16
2022-09-28T17:08:04.707Z,99501.44
2022-09-28T17:10:45.139Z,99501.91
2022-09-28T17:13:22.477Z,99498.03
2022-09-28T17:15:49.362Z,99495.56
2022-09-28T17:18:15.769Z,99494.75
2022-09-28T17:20:41.978Z,99481.72
2022-09-28T17:23:07.526Z,99476.19
2022-09-28T17:25:33.063Z,99480.13
2022-09-28T17:27:58.622Z,99478.16
2022-09-28T17:30:25.766Z,99482.06
2022-09-28T17:32:51.524Z,99476.53
2022-09-28T17:35:25.843Z,99492.63
2022-09-28T17:37:51.519Z,99494.28
2022-09-28T17:40:18.132Z,99492.31
2022-09-28T17:42:43.720Z,99505.03
2022-09-28T17:45:09.291Z,99510.56
2022-09-28T17:47:34.844Z,99502.25
2022-09-28T17:50:00.379Z,99504.50
2022-09-28T17:52:25.928Z,99516.41
2022-09-28T17:54:51.465Z,99508.44
2022-09-28T17:57:17.012Z,99514.78
2022-09-28T17:59:42.548Z,99507.28
2022-09-28T18:02:09.397Z,99516.72
2022-09-28T18:04:51.437Z,99512.34
2022-09-28T18:07:17.590Z,99515.09
2022-09-28T18:09:43.132Z,99519.84
2022-09-28T18:12:08.806Z,99520.16
2022-09-28T18:14:35.023Z,99522.59
2022-09-28T18:17:00.589Z,99519.03
2022-09-28T18:19:31.693Z,99522.59
2022-09-28T18:21:57.847Z,99516.56
2022-09-28T18:24:23.387Z,99520.66
2022-09-28T18:26:48.939Z,99523.75
2022-09-28T18:29:15.967Z,99518.22
2022-09-28T18:31:41.510Z,99521.78
2022-09-28T18:34:07.085Z,99526.81
2022-09-28T18:36:34.804Z,99533.50
2022-09-28T18:39:00.700Z,99533.16
2022-09-28T18:41:26.316Z,99532.03
2022-09-28T18:43:52.285Z,99530.41
2022-09-28T18:46:18.234Z,99532.03
2022-09-28T18:48:43.960Z,99540.66
2022-09-28T18:51:10.385Z,99540.97
2022-09-28T18:53:36.315Z,99540.66
2022-09-28T18:56:07.098Z,99536.78
2022-09-28T18:58:33.413Z,99540.66
2022-09-28T19:01:18.723Z,99542.59
2022-09-28T19:03:44.471Z,99544.91
2022-09-28T19:06:10.474Z,99539.03
2022-09-28T19:08:36.221Z,99539.03
2022-09-28T19:11:10.214Z,99539.03
2022-09-28T19:13:35.763Z,99541.31
2022-09-28T19:16:21.222Z,99537.41
2022-09-28T19:18:47.046Z,99542.94
2022-09-28T19:21:13.270Z,99552.06
2022-09-28T19:23:39.067Z,99547.16
2022-09-28T19:26:05.507Z,99550.44
2022-09-28T19:28:31.520Z,99546.84
2022-09-28T19:30:57.607Z,99556.78
2022-09-28T19:33:23.260Z,99550.72
2022-09-28T19:36:04.819Z,99557.59
2022-09-28T19:38:31.149Z,99559.03
2022-09-28T19:40:56.854Z,99551.53
2022-09-28T19:43:22.434Z,99559.03
2022-09-28T19:45:55.140Z,99557.09
2022-09-28T19:48:28.078Z,99557.09
2022-09-28T19:50:55.594Z,99561.50
2022-09-28T19:53:22.673Z,99563.44
2022-09-28T19:55:49.875Z,99563.44
2022-09-28T19:58:15.458Z,99570.09
2022-09-28T20:00:41.004Z,99575.63
2022-09-28T20:03:06.606Z,99567.34
2022-09-28T20:05:32.189Z,99575.97
2022-09-28T20:07:57.763Z,99574.00
2022-09-28T20:10:23.319Z,99580.88
2022-09-28T20:12:50.410Z,99581.16
2022-09-28T20:15:15.947Z,99587.22
2022-09-28T20:17:41.504Z,99588.34
2022-09-28T20:20:07.191Z,99578.91
2022-09-28T20:22:32.745Z,99581.66
2022-09-28T20:24:59.229Z,99580.34
2022-09-28T20:27:26.651Z,99578.72
2022-09-28T20:29:52.240Z,99587.22
2022-09-28T20:32:17.787Z,99590.28
2022-09-28T20:34:43.324Z,99585.25
2022-09-28T20:37:08.881Z,99589.97
2022-09-28T20:39:34.417Z,99584.44
2022-09-28T20:41:59.960Z,99589.16
2022-09-28T20:44:25.498Z,99586.06
2022-09-28T20:46:51.045Z,99587.22
2022-09-28T20:49:16.591Z,99588.34
2022-09-28T20:51:42.548Z,99584.44
2022-09-28T20:54:08.094Z,99587.22
2022-09-28T20:56:36.795Z,99585.06
2022-09-28T20:59:02.463Z,99589.47
2022-09-28T21:01:29.155Z,99588.34
2022-09-28T21:03:55.743Z,99586.69
2022-09-28T21:06:22.204Z,99581.16
2022-09-28T21:08:48.750Z,99579.53
2022-09-28T21:11:15.144Z,99586.69
2022-09-28T21:13:42.036Z,99589.16
2022-09-28T21:16:09.325Z,99589.16
2022-09-28T21:18:34.915Z,99586.69
2022-09-28T21:21:00.456Z,99589.47
2022-09-28T21:23:26.003Z,99590.59
2022-09-28T21:26:07.928Z,99588.66
2022-09-28T21:28:33.678Z,99589.47
2022-09-28T21:31:00.285Z,99589.81
2022-09-28T21:33:25.873Z,99597.28
2022-09-28T21:35:51.417Z,99593.72
2022-09-28T21:38:16.980Z,99594.19
2022-09-28T21:40:42.594Z,99598.09
2022-09-28T21:43:08.216Z,99599.25
2022-09-28T21:45:33.755Z,99603.63
2022-09-28T21:47:59.307Z,99602.50
2022-09-28T21:50:25.274Z,99601.69
2022-09-28T21:52:52.386Z,99601.19
2022-09-28T21:55:18.530Z,99601.50
2022-09-28T21:57:44.675Z,99600.88
2022-09-28T22:00:10.760Z,99598.91
2022-09-28T22:02:38.094Z,99597.63
2022-09-28T22:05:04.091Z,99605.59
2022-09-28T22:07:29.640Z,99601.19
2022-09-28T22:09:55.186Z,99603.16
2022-09-28T22:12:20.737Z,99599.25
2022-09-28T22:14:46.285Z,99606.72
2022-09-28T22:17:11.836Z,99605.59
2022-09-28T22:19:37.411Z,99600.53
2022-09-28T22:22:02.969Z,99601.69
2022-09-28T22:24:28.507Z,99600.88
2022-09-28T22:26:54.051Z,99598.44
2022-09-28T22:29:20.818Z,99596.78
2022-09-28T22:31:46.363Z,99605.59
2022-09-28T22:34:11.975Z,99597.28
2022-09-28T22:36:37.663Z,99601.19
2022-09-28T22:39:03.202Z,99598.75
2022-09-28T22:41:29.179Z,99596.47
2022-09-28T22:43:54.871Z,99597.28
2022-09-28T22:46:21.524Z,99604.28
2022-09-28T22:48:47.839Z,99603.16
2022-09-28T22:51:13.875Z,99603.97
2022-09-28T22:53:39.420Z,99600.38
2022-09-28T22:56:05.282Z,99603.16
2022-09-28T22:58:31.221Z,99612.28
2022-09-28T23:01:03.744Z,99615.34
2022-09-28T23:03:29.291Z,99617.28
2022-09-28T23:05:54.917Z,99617.00
2022-09-28T23:08:21.374Z,99615.03
2022-09-28T23:10:47.065Z,99612.56
2022-09-28T23:13:12.752Z,99614.53
2022-09-28T23:15:38.320Z,99603.47
2022-09-28T23:18:03.901Z,99607.84
2022-09-28T23:20:29.443Z,99605.06
2022-09-28T23:22:55.003Z,99600.38
2022-09-28T23:25:20.543Z,99606.22
2022-09-28T23:27:46.413Z,99604.28
2022-09-28T23:30:12.079Z,99603.47
2022-09-28T23:32:37.629Z,99601.84
2022-09-28T23:35:03.253Z,99604.28
2022-09-28T23:37:28.802Z,99603.47
2022-09-28T23:39:55.067Z,99601.03
2022-09-28T23:42:20.619Z,99601.03
2022-09-28T23:44:46.158Z,99607.03
2022-09-28T23:47:11.699Z,99603.16
2022-09-28T23:49:37.234Z,99598.75
2022-09-28T23:52:02.780Z,99599.88
2022-09-28T23:54:28.313Z,99609.31
2022-09-28T23:56:53.880Z,99605.41
2022-09-28T23:59:19.519Z,99607.38
